sensor_id;sensor_type;location;lat;lon;timestamp;temperature;humidity
21662;DHT22;10992;48.170;8.596;2023-10-09T00:02:12;11.30;99.90
21662;DHT22;10992;48.170;8.596;2023-10-09T00:04:39;11.40;99.90
21662;DHT22;10992;48.170;8.596;2023-10-09T00:07:12;11.30;99.90
21662;DHT22;10992;48.170;8.596;2023-10-09T00:09:39;11.30;99.90
21662;DHT22;10992;48.170;8.596;2023-10-09T00:12:25;11.30;99.90
21662;DHT22;10992;48.170;8.596;2023-10-09T00:14:52;11.10;99.90
21662;DHT22;10992;48.170;8.596;2023-10-09T00:17:23;11.00;99.90
21662;DHT22;10992;48.170;8.596;2023-10-09T00:19:51;10.90;99.90
21662;DHT22;10992;48.170;8.596;2023-10-09T00:22:19;11.00;99.90
21662;DHT22;10992;48.170;8.596;2023-10-09T00:24:53;11.10;99.90
21662;DHT22;10992;48.170;8.596;2023-10-09T00:27:40;11.10;99.90
21662;DHT22;10992;48.170;8.596;2023-10-09T00:30:11;11.10;99.90
21662;DHT22;10992;48.170;8.596;2023-10-09T00:32:45;11.10;99.90
21662;DHT22;10992;48.170;8.596;2023-10-09T00:35:27;11.10;99.90
21662;DHT22;10992;48.170;8.596;2023-10-09T00:38:05;11.40;99.90
21662;DHT22;10992;48.170;8.596;2023-10-09T00:40:47;11.60;99.90
21662;DHT22;10992;48.170;8.596;2023-10-09T00:43:23;12.00;99.90
21662;DHT22;10992;48.170;8.596;2023-10-09T00:45:58;12.30;99.90
21662;DHT22;10992;48.170;8.596;2023-10-09T00:48:39;12.60;99.90
21662;DHT22;10992;48.170;8.596;2023-10-09T00:51:08;12.60;99.90
21662;DHT22;10992;48.170;8.596;2023-10-09T00:53:44;12.70;99.90
21662;DHT22;10992;48.170;8.596;2023-10-09T00:56:12;12.80;99.90
21662;DHT22;10992;48.170;8.596;2023-10-09T00:58:58;12.90;99.90
21662;DHT22;10992;48.170;8.596;2023-10-09T01:01:42;13.10;99.90
21662;DHT22;10992;48.170;8.596;2023-10-09T01:04:25;13.10;99.90
21662;DHT22;10992;48.170;8.596;2023-10-09T01:06:56;13.20;99.90
21662;DHT22;10992;48.170;8.596;2023-10-09T01:09:43;13.20;99.90
21662;DHT22;10992;48.170;8.596;2023-10-09T01:12:11;13.30;99.90
21662;DHT22;10992;48.170;8.596;2023-10-09T01:14:45;13.40;99.90
21662;DHT22;10992;48.170;8.596;2023-10-09T01:17:13;13.50;99.90
21662;DHT22;10992;48.170;8.596;2023-10-09T01:19:56;13.50;99.90
21662;DHT22;10992;48.170;8.596;2023-10-09T01:22:30;13.50;99.90
21662;DHT22;10992;48.170;8.596;2023-10-09T01:24:56;13.60;99.90
21662;DHT22;10992;48.170;8.596;2023-10-09T01:27:23;13.60;99.90
21662;DHT22;10992;48.170;8.596;2023-10-09T01:29:59;13.40;99.90
21662;DHT22;10992;48.170;8.596;2023-10-09T01:32:26;13.40;99.90
21662;DHT22;10992;48.170;8.596;2023-10-09T01:34:53;13.30;99.90
21662;DHT22;10992;48.170;8.596;2023-10-09T01:37:21;13.10;99.90
21662;DHT22;10992;48.170;8.596;2023-10-09T01:39:58;13.00;99.90
21662;DHT22;10992;48.170;8.596;2023-10-09T01:42:26;12.90;99.90
21662;DHT22;10992;48.170;8.596;2023-10-09T01:44:57;12.90;99.90
21662;DHT22;10992;48.170;8.596;2023-10-09T01:47:44;12.90;99.90
21662;DHT22;10992;48.170;8.596;2023-10-09T01:50:20;13.00;99.90
21662;DHT22;10992;48.170;8.596;2023-10-09T01:52:49;12.90;99.90
21662;DHT22;10992;48.170;8.596;2023-10-09T01:55:18;12.90;99.90
21662;DHT22;10992;48.170;8.596;2023-10-09T01:58:07;12.80;99.90
21662;DHT22;10992;48.170;8.596;2023-10-09T02:00:51;12.80;99.90
21662;DHT22;10992;48.170;8.596;2023-10-09T02:03:22;12.70;99.90
21662;DHT22;10992;48.170;8.596;2023-10-09T02:05:54;12.70;99.90
21662;DHT22;10992;48.170;8.596;2023-10-09T02:08:44;12.60;99.90
21662;DHT22;10992;48.170;8.596;2023-10-09T02:11:16;12.50;99.90
21662;DHT22;10992;48.170;8.596;2023-10-09T02:13:51;12.50;99.90
21662;DHT22;10992;48.170;8.596;2023-10-09T02:16:36;12.50;99.90
21662;DHT22;10992;48.170;8.596;2023-10-09T02:19:08;12.50;99.90
21662;DHT22;10992;48.170;8.596;2023-10-09T02:21:55;12.40;99.90
21662;DHT22;10992;48.170;8.596;2023-10-09T02:24:24;12.30;99.90
21662;DHT22;10992;48.170;8.596;2023-10-09T02:27:10;12.20;99.90
21662;DHT22;10992;48.170;8.596;2023-10-09T02:29:38;12.10;99.90
21662;DHT22;10992;48.170;8.596;2023-10-09T02:32:05;12.10;99.90
21662;DHT22;10992;48.170;8.596;2023-10-09T02:34:40;12.00;99.90
21662;DHT22;10992;48.170;8.596;2023-10-09T02:37:08;12.00;99.90
21662;DHT22;10992;48.170;8.596;2023-10-09T02:39:40;12.00;99.90
21662;DHT22;10992;48.170;8.596;2023-10-09T02:42:15;12.00;99.90
21662;DHT22;10992;48.170;8.596;2023-10-09T02:44:42;12.00;99.90
21662;DHT22;10992;48.170;8.596;2023-10-09T02:47:18;12.00;99.90
21662;DHT22;10992;48.170;8.596;2023-10-09T02:49:47;12.00;99.90
21662;DHT22;10992;48.170;8.596;2023-10-09T02:52:18;11.90;99.90
21662;DHT22;10992;48.170;8.596;2023-10-09T02:54:46;11.80;99.90
21662;DHT22;10992;48.170;8.596;2023-10-09T02:57:14;11.80;99.90
21662;DHT22;10992;48.170;8.596;2023-10-09T02:59:51;11.90;99.90
21662;DHT22;10992;48.170;8.596;2023-10-09T03:02:19;11.90;99.90
21662;DHT22;10992;48.170;8.596;2023-10-09T03:04:45;11.80;99.90
21662;DHT22;10992;48.170;8.596;2023-10-09T03:07:13;11.80;99.90
21662;DHT22;10992;48.170;8.596;2023-10-09T03:09:40;11.70;99.90
21662;DHT22;10992;48.170;8.596;2023-10-09T03:12:08;11.60;99.90
21662;DHT22;10992;48.170;8.596;2023-10-09T03:14:40;11.50;99.90
21662;DHT22;10992;48.170;8.596;2023-10-09T03:17:08;11.40;99.90
21662;DHT22;10992;48.170;8.596;2023-10-09T03:19:40;11.40;99.90
21662;DHT22;10992;48.170;8.596;2023-10-09T03:22:07;11.30;99.90
21662;DHT22;10992;48.170;8.596;2023-10-09T03:24:39;11.20;99.90
21662;DHT22;10992;48.170;8.596;2023-10-09T03:27:16;11.10;99.90
21662;DHT22;10992;48.170;8.596;2023-10-09T03:29:43;11.10;99.90
21662;DHT22;10992;48.170;8.596;2023-10-09T03:32:16;11.10;99.90
21662;DHT22;10992;48.170;8.596;2023-10-09T03:34:43;11.20;99.90
21662;DHT22;10992;48.170;8.596;2023-10-09T03:37:11;11.10;99.90
21662;DHT22;10992;48.170;8.596;2023-10-09T03:39:49;11.20;99.90
21662;DHT22;10992;48.170;8.596;2023-10-09T03:42:19;11.40;99.90
21662;DHT22;10992;48.170;8.596;2023-10-09T03:44:46;11.60;99.90
21662;DHT22;10992;48.170;8.596;2023-10-09T03:47:20;11.70;99.90
21662;DHT22;10992;48.170;8.596;2023-10-09T03:49:50;11.80;99.90
21662;DHT22;10992;48.170;8.596;2023-10-09T03:52:18;11.90;99.90
21662;DHT22;10992;48.170;8.596;2023-10-09T03:54:46;12.00;99.90
21662;DHT22;10992;48.170;8.596;2023-10-09T03:57:13;12.10;99.90
21662;DHT22;10992;48.170;8.596;2023-10-09T03:59:45;12.10;99.90
21662;DHT22;10992;48.170;8.596;2023-10-09T04:02:14;12.10;99.90
21662;DHT22;10992;48.170;8.596;2023-10-09T04:04:42;12.10;99.90
21662;DHT22;10992;48.170;8.596;2023-10-09T04:07:15;12.10;99.90
21662;DHT22;10992;48.170;8.596;2023-10-09T04:09:43;12.00;99.90
21662;DHT22;10992;48.170;8.596;2023-10-09T04:12:14;11.90;99.90
21662;DHT22;10992;48.170;8.596;2023-10-09T04:14:48;11.80;99.90
21662;DHT22;10992;48.170;8.596;2023-10-09T04:17:23;11.70;99.90
21662;DHT22;10992;48.170;8.596;2023-10-09T04:20:03;11.80;99.90
21662;DHT22;10992;48.170;8.596;2023-10-09T04:23:03;11.80;99.90
21662;DHT22;10992;48.170;8.596;2023-10-09T04:25:33;11.80;99.90
21662;DHT22;10992;48.170;8.596;2023-10-09T04:28:10;11.90;99.90
21662;DHT22;10992;48.170;8.596;2023-10-09T04:30:48;11.80;99.90
21662;DHT22;10992;48.170;8.596;2023-10-09T04:33:28;11.80;99.90
21662;DHT22;10992;48.170;8.596;2023-10-09T04:36:08;12.00;99.90
21662;DHT22;10992;48.170;8.596;2023-10-09T04:38:53;12.10;99.90
21662;DHT22;10992;48.170;8.596;2023-10-09T04:41:43;12.10;99.90
21662;DHT22;10992;48.170;8.596;2023-10-09T04:44:10;12.10;99.90
21662;DHT22;10992;48.170;8.596;2023-10-09T04:46:50;12.10;99.90
21662;DHT22;10992;48.170;8.596;2023-10-09T04:49:39;12.30;99.90
21662;DHT22;10992;48.170;8.596;2023-10-09T04:52:16;12.30;99.90
21662;DHT22;10992;48.170;8.596;2023-10-09T04:54:52;12.30;99.90
21662;DHT22;10992;48.170;8.596;2023-10-09T04:57:42;12.20;99.90
21662;DHT22;10992;48.170;8.596;2023-10-09T05:00:18;12.10;99.90
21662;DHT22;10992;48.170;8.596;2023-10-09T05:02:53;12.10;99.90
21662;DHT22;10992;48.170;8.596;2023-10-09T05:05:27;12.00;99.90
21662;DHT22;10992;48.170;8.596;2023-10-09T05:08:16;11.90;99.90
21662;DHT22;10992;48.170;8.596;2023-10-09T05:10:53;11.80;99.90
21662;DHT22;10992;48.170;8.596;2023-10-09T05:13:28;11.70;99.90
21662;DHT22;10992;48.170;8.596;2023-10-09T05:16:10;11.60;99.90
21662;DHT22;10992;48.170;8.596;2023-10-09T05:18:46;11.50;99.90
21662;DHT22;10992;48.170;8.596;2023-10-09T05:21:24;11.50;99.90
21662;DHT22;10992;48.170;8.596;2023-10-09T05:24:01;11.50;99.90
21662;DHT22;10992;48.170;8.596;2023-10-09T05:26:49;11.50;99.90
21662;DHT22;10992;48.170;8.596;2023-10-09T05:29:26;11.50;99.90
21662;DHT22;10992;48.170;8.596;2023-10-09T05:31:55;11.60;99.90
21662;DHT22;10992;48.170;8.596;2023-10-09T05:34:32;11.60;99.90
21662;DHT22;10992;48.170;8.596;2023-10-09T05:37:17;11.70;99.90
21662;DHT22;10992;48.170;8.596;2023-10-09T05:39:49;11.70;99.90
21662;DHT22;10992;48.170;8.596;2023-10-09T05:42:33;11.80;99.90
21662;DHT22;10992;48.170;8.596;2023-10-09T05:45:12;11.90;99.90
21662;DHT22;10992;48.170;8.596;2023-10-09T05:47:53;11.90;99.90
21662;DHT22;10992;48.170;8.596;2023-10-09T05:50:24;12.10;99.90
21662;DHT22;10992;48.170;8.596;2023-10-09T05:52:52;12.10;99.90
21662;DHT22;10992;48.170;8.596;2023-10-09T05:55:20;12.20;99.90
21662;DHT22;10992;48.170;8.596;2023-10-09T05:57:47;12.30;99.90
21662;DHT22;10992;48.170;8.596;2023-10-09T06:00:33;12.40;99.90
21662;DHT22;10992;48.170;8.596;2023-10-09T06:03:18;12.70;99.90
21662;DHT22;10992;48.170;8.596;2023-10-09T06:05:55;13.20;99.90
21662;DHT22;10992;48.170;8.596;2023-10-09T06:08:30;13.50;99.90
21662;DHT22;10992;48.170;8.596;2023-10-09T06:11:10;13.60;99.90
21662;DHT22;10992;48.170;8.596;2023-10-09T06:13:59;13.70;99.90
21662;DHT22;10992;48.170;8.596;2023-10-09T06:21:43;13.90;99.90
21662;DHT22;10992;48.170;8.596;2023-10-09T06:24:19;14.00;99.90
21662;DHT22;10992;48.170;8.596;2023-10-09T06:26:47;14.00;99.90
21662;DHT22;10992;48.170;8.596;2023-10-09T06:29:27;14.00;99.90
21662;DHT22;10992;48.170;8.596;2023-10-09T06:32:12;13.90;99.90
21662;DHT22;10992;48.170;8.596;2023-10-09T06:34:50;13.90;99.90
21662;DHT22;10992;48.170;8.596;2023-10-09T06:37:23;14.00;99.90
21662;DHT22;10992;48.170;8.596;2023-10-09T06:39:56;14.20;99.90
21662;DHT22;10992;48.170;8.596;2023-10-09T06:42:27;14.20;99.90
21662;DHT22;10992;48.170;8.596;2023-10-09T06:45:19;14.20;99.90
21662;DHT22;10992;48.170;8.596;2023-10-09T06:47:49;14.30;99.90
21662;DHT22;10992;48.170;8.596;2023-10-09T06:50:36;14.40;99.90
21662;DHT22;10992;48.170;8.596;2023-10-09T06:53:22;14.50;99.90
21662;DHT22;10992;48.170;8.596;2023-10-09T06:55:55;14.70;99.90
21662;DHT22;10992;48.170;8.596;2023-10-09T06:58:32;14.90;99.90
21662;DHT22;10992;48.170;8.596;2023-10-09T07:01:09;15.20;99.90
21662;DHT22;10992;48.170;8.596;2023-10-09T07:03:58;15.40;99.90
21662;DHT22;10992;48.170;8.596;2023-10-09T07:06:37;15.60;99.90
21662;DHT22;10992;48.170;8.596;2023-10-09T07:09:04;15.70;99.90
21662;DHT22;10992;48.170;8.596;2023-10-09T07:11:51;15.90;99.90
21662;DHT22;10992;48.170;8.596;2023-10-09T07:14:22;16.00;99.90
21662;DHT22;10992;48.170;8.596;2023-10-09T07:17:18;16.10;99.90
21662;DHT22;10992;48.170;8.596;2023-10-09T07:19:51;16.70;99.90
21662;DHT22;10992;48.170;8.596;2023-10-09T07:22:18;17.50;99.90
21662;DHT22;10992;48.170;8.596;2023-10-09T07:24:56;17.80;99.90
21662;DHT22;10992;48.170;8.596;2023-10-09T07:27:30;18.10;99.90
21662;DHT22;10992;48.170;8.596;2023-10-09T07:30:20;17.90;99.90
21662;DHT22;10992;48.170;8.596;2023-10-09T07:33:15;17.70;99.90
21662;DHT22;10992;48.170;8.596;2023-10-09T07:35:46;17.50;99.90
21662;DHT22;10992;48.170;8.596;2023-10-09T07:38:25;17.60;99.90
21662;DHT22;10992;48.170;8.596;2023-10-09T07:40:56;17.60;99.90
21662;DHT22;10992;48.170;8.596;2023-10-09T07:43:46;17.70;99.90
21662;DHT22;10992;48.170;8.596;2023-10-09T07:46:14;17.80;99.90
21662;DHT22;10992;48.170;8.596;2023-10-09T07:49:11;18.00;99.90
21662;DHT22;10992;48.170;8.596;2023-10-09T07:51:41;18.00;99.90
21662;DHT22;10992;48.170;8.596;2023-10-09T07:54:13;18.30;99.90
21662;DHT22;10992;48.170;8.596;2023-10-09T07:56:59;18.50;99.90
21662;DHT22;10992;48.170;8.596;2023-10-09T07:59:35;18.60;99.90
21662;DHT22;10992;48.170;8.596;2023-10-09T08:02:07;18.80;99.90
21662;DHT22;10992;48.170;8.596;2023-10-09T08:04:40;19.50;99.90
21662;DHT22;10992;48.170;8.596;2023-10-09T08:07:17;19.80;99.90
21662;DHT22;10992;48.170;8.596;2023-10-09T08:10:08;20.20;99.90
21662;DHT22;10992;48.170;8.596;2023-10-09T08:12:42;20.00;99.90
21662;DHT22;10992;48.170;8.596;2023-10-09T08:15:18;19.80;99.90
21662;DHT22;10992;48.170;8.596;2023-10-09T08:17:53;19.80;99.90
21662;DHT22;10992;48.170;8.596;2023-10-09T08:20:25;19.80;99.90
21662;DHT22;10992;48.170;8.596;2023-10-09T08:22:53;20.00;99.90
21662;DHT22;10992;48.170;8.596;2023-10-09T08:25:23;20.20;99.90
21662;DHT22;10992;48.170;8.596;2023-10-09T08:30:22;20.00;99.90
21662;DHT22;10992;48.170;8.596;2023-10-09T08:32:52;20.00;99.90
21662;DHT22;10992;48.170;8.596;2023-10-09T08:35:34;19.90;99.90
21662;DHT22;10992;48.170;8.596;2023-10-09T08:38:14;20.00;99.90
21662;DHT22;10992;48.170;8.596;2023-10-09T08:40:41;20.20;99.90
21662;DHT22;10992;48.170;8.596;2023-10-09T08:43:15;20.30;99.90
21662;DHT22;10992;48.170;8.596;2023-10-09T08:45:51;20.40;99.90
21662;DHT22;10992;48.170;8.596;2023-10-09T08:48:20;20.50;99.90
21662;DHT22;10992;48.170;8.596;2023-10-09T08:50:54;20.60;99.90
21662;DHT22;10992;48.170;8.596;2023-10-09T08:53:23;20.70;99.90
21662;DHT22;10992;48.170;8.596;2023-10-09T08:55:58;20.80;99.90
21662;DHT22;10992;48.170;8.596;2023-10-09T08:58:26;20.90;99.90
21662;DHT22;10992;48.170;8.596;2023-10-09T09:01:01;21.00;99.90
21662;DHT22;10992;48.170;8.596;2023-10-09T09:03:38;21.00;99.90
21662;DHT22;10992;48.170;8.596;2023-10-09T09:06:05;21.00;99.90
21662;DHT22;10992;48.170;8.596;2023-10-09T09:08:33;21.20;99.90
21662;DHT22;10992;48.170;8.596;2023-10-09T09:11:10;21.30;99.90
21662;DHT22;10992;48.170;8.596;2023-10-09T09:14:10;21.60;99.90
21662;DHT22;10992;48.170;8.596;2023-10-09T09:16:45;21.80;99.90
21662;DHT22;10992;48.170;8.596;2023-10-09T09:19:15;22.00;99.90
21662;DHT22;10992;48.170;8.596;2023-10-09T09:21:50;22.00;99.90
21662;DHT22;10992;48.170;8.596;2023-10-09T09:24:26;22.00;99.90
21662;DHT22;10992;48.170;8.596;2023-10-09T09:26:53;22.50;99.90
21662;DHT22;10992;48.170;8.596;2023-10-09T09:32:10;23.60;99.90
21662;DHT22;10992;48.170;8.596;2023-10-09T09:34:49;23.70;99.90
21662;DHT22;10992;48.170;8.596;2023-10-09T09:37:19;23.70;99.90
21662;DHT22;10992;48.170;8.596;2023-10-09T09:39:47;23.80;99.90
21662;DHT22;10992;48.170;8.596;2023-10-09T09:42:22;23.90;99.90
21662;DHT22;10992;48.170;8.596;2023-10-09T09:44:53;23.60;99.90
21662;DHT22;10992;48.170;8.596;2023-10-09T09:47:22;23.30;99.90
21662;DHT22;10992;48.170;8.596;2023-10-09T09:49:54;23.10;99.90
21662;DHT22;10992;48.170;8.596;2023-10-09T09:52:31;23.20;99.90
21662;DHT22;10992;48.170;8.596;2023-10-09T09:55:08;23.40;99.90
21662;DHT22;10992;48.170;8.596;2023-10-09T09:57:41;23.60;99.90
21662;DHT22;10992;48.170;8.596;2023-10-09T10:00:12;23.70;99.90
21662;DHT22;10992;48.170;8.596;2023-10-09T10:03:03;24.00;99.90
21662;DHT22;10992;48.170;8.596;2023-10-09T10:05:33;24.30;99.90
21662;DHT22;10992;48.170;8.596;2023-10-09T10:08:02;24.30;99.90
21662;DHT22;10992;48.170;8.596;2023-10-09T10:10:40;24.60;99.90
21662;DHT22;10992;48.170;8.596;2023-10-09T10:16:11;24.70;99.90
21662;DHT22;10992;48.170;8.596;2023-10-09T10:19:04;24.90;99.90
21662;DHT22;10992;48.170;8.596;2023-10-09T10:21:49;24.90;99.90
21662;DHT22;10992;48.170;8.596;2023-10-09T10:24:43;24.70;99.90
21662;DHT22;10992;48.170;8.596;2023-10-09T10:27:20;24.50;99.90
21662;DHT22;10992;48.170;8.596;2023-10-09T10:35:22;24.70;99.90
21662;DHT22;10992;48.170;8.596;2023-10-09T10:38:30;24.50;99.90
21662;DHT22;10992;48.170;8.596;2023-10-09T10:41:13;24.70;99.90
21662;DHT22;10992;48.170;8.596;2023-10-09T10:43:45;25.00;99.90
21662;DHT22;10992;48.170;8.596;2023-10-09T10:46:24;25.20;99.90
21662;DHT22;10992;48.170;8.596;2023-10-09T10:48:52;25.70;99.90
21662;DHT22;10992;48.170;8.596;2023-10-09T10:51:38;25.70;99.90
21662;DHT22;10992;48.170;8.596;2023-10-09T10:54:06;25.70;99.90
21662;DHT22;10992;48.170;8.596;2023-10-09T10:56:52;25.60;99.90
21662;DHT22;10992;48.170;8.596;2023-10-09T10:59:19;25.80;99.90
21662;DHT22;10992;48.170;8.596;2023-10-09T11:01:50;26.30;99.90
21662;DHT22;10992;48.170;8.596;2023-10-09T11:04:27;27.30;99.90
21662;DHT22;10992;48.170;8.596;2023-10-09T11:06:58;28.20;99.90
21662;DHT22;10992;48.170;8.596;2023-10-09T11:09:48;28.50;99.90
21662;DHT22;10992;48.170;8.596;2023-10-09T11:15:13;28.90;97.70
21662;DHT22;10992;48.170;8.596;2023-10-09T11:18:03;28.80;98.50
21662;DHT22;10992;48.170;8.596;2023-10-09T11:20:44;28.10;98.60
21662;DHT22;10992;48.170;8.596;2023-10-09T11:23:44;27.80;97.10
21662;DHT22;10992;48.170;8.596;2023-10-09T11:26:31;27.60;97.80
21662;DHT22;10992;48.170;8.596;2023-10-09T11:29:53;27.50;96.70
21662;DHT22;10992;48.170;8.596;2023-10-09T11:32:22;27.10;97.10
21662;DHT22;10992;48.170;8.596;2023-10-09T11:34:51;26.60;97.90
21662;DHT22;10992;48.170;8.596;2023-10-09T11:37:23;26.40;97.10
21662;DHT22;10992;48.170;8.596;2023-10-09T11:41:15;26.70;97.40
21662;DHT22;10992;48.170;8.596;2023-10-09T11:43:53;27.00;96.90
21662;DHT22;10992;48.170;8.596;2023-10-09T11:49:52;27.10;97.50
21662;DHT22;10992;48.170;8.596;2023-10-09T11:52:29;27.20;97.70
21662;DHT22;10992;48.170;8.596;2023-10-09T11:54:59;27.60;97.30
21662;DHT22;10992;48.170;8.596;2023-10-09T11:57:26;27.40;97.50
21662;DHT22;10992;48.170;8.596;2023-10-09T12:00:01;26.60;97.90
21662;DHT22;10992;48.170;8.596;2023-10-09T12:02:29;26.80;97.40
21662;DHT22;10992;48.170;8.596;2023-10-09T12:04:58;26.40;97.40
21662;DHT22;10992;48.170;8.596;2023-10-09T12:07:25;26.60;97.80
21662;DHT22;10992;48.170;8.596;2023-10-09T12:09:52;26.70;98.40
21662;DHT22;10992;48.170;8.596;2023-10-09T12:12:23;26.40;98.20
21662;DHT22;10992;48.170;8.596;2023-10-09T12:14:53;26.70;98.30
21662;DHT22;10992;48.170;8.596;2023-10-09T12:17:20;26.70;97.20
21662;DHT22;10992;48.170;8.596;2023-10-09T12:19:52;26.40;99.10
21662;DHT22;10992;48.170;8.596;2023-10-09T12:22:19;26.30;98.10
21662;DHT22;10992;48.170;8.596;2023-10-09T12:24:48;26.20;98.30
21662;DHT22;10992;48.170;8.596;2023-10-09T12:27:15;26.10;97.70
21662;DHT22;10992;48.170;8.596;2023-10-09T12:29:46;26.30;97.70
21662;DHT22;10992;48.170;8.596;2023-10-09T12:32:16;26.40;97.40
21662;DHT22;10992;48.170;8.596;2023-10-09T12:34:47;25.70;98.70
21662;DHT22;10992;48.170;8.596;2023-10-09T12:37:17;25.40;99.40
21662;DHT22;10992;48.170;8.596;2023-10-09T12:39:47;25.50;99.90
21662;DHT22;10992;48.170;8.596;2023-10-09T12:42:14;25.10;99.90
21662;DHT22;10992;48.170;8.596;2023-10-09T12:44:44;24.90;99.90
21662;DHT22;10992;48.170;8.596;2023-10-09T12:47:11;25.00;99.90
21662;DHT22;10992;48.170;8.596;2023-10-09T12:49:38;24.90;99.90
21662;DHT22;10992;48.170;8.596;2023-10-09T12:52:08;24.80;99.90
21662;DHT22;10992;48.170;8.596;2023-10-09T12:54:45;25.00;99.90
21662;DHT22;10992;48.170;8.596;2023-10-09T12:57:14;24.90;99.90
21662;DHT22;10992;48.170;8.596;2023-10-09T12:59:41;25.10;99.90
21662;DHT22;10992;48.170;8.596;2023-10-09T13:02:13;25.20;99.90
21662;DHT22;10992;48.170;8.596;2023-10-09T13:04:56;25.10;99.90
21662;DHT22;10992;48.170;8.596;2023-10-09T13:07:23;25.30;99.50
21662;DHT22;10992;48.170;8.596;2023-10-09T13:09:50;25.30;98.90
21662;DHT22;10992;48.170;8.596;2023-10-09T13:12:35;25.40;99.20
21662;DHT22;10992;48.170;8.596;2023-10-09T13:15:09;25.40;98.80
21662;DHT22;10992;48.170;8.596;2023-10-09T13:17:37;25.20;99.20
21662;DHT22;10992;48.170;8.596;2023-10-09T13:20:05;25.20;98.90
21662;DHT22;10992;48.170;8.596;2023-10-09T13:22:43;25.10;98.90
21662;DHT22;10992;48.170;8.596;2023-10-09T13:25:11;25.00;99.20
21662;DHT22;10992;48.170;8.596;2023-10-09T13:28:01;25.30;99.90
21662;DHT22;10992;48.170;8.596;2023-10-09T13:30:31;25.70;98.70
21662;DHT22;10992;48.170;8.596;2023-10-09T13:33:05;25.90;98.70
21662;DHT22;10992;48.170;8.596;2023-10-09T13:35:32;26.20;99.40
21662;DHT22;10992;48.170;8.596;2023-10-09T13:38:11;26.20;98.30
21662;DHT22;10992;48.170;8.596;2023-10-09T13:40:37;26.00;98.60
21662;DHT22;10992;48.170;8.596;2023-10-09T13:43:04;25.90;98.30
21662;DHT22;10992;48.170;8.596;2023-10-09T13:45:38;25.60;97.00
21662;DHT22;10992;48.170;8.596;2023-10-09T13:48:05;25.60;98.60
21662;DHT22;10992;48.170;8.596;2023-10-09T13:50:38;25.70;99.00
21662;DHT22;10992;48.170;8.596;2023-10-09T13:53:09;26.20;98.30
21662;DHT22;10992;48.170;8.596;2023-10-09T13:55:41;26.60;96.50
21662;DHT22;10992;48.170;8.596;2023-10-09T13:58:10;27.10;95.50
21662;DHT22;10992;48.170;8.596;2023-10-09T14:00:45;27.60;94.70
21662;DHT22;10992;48.170;8.596;2023-10-09T14:03:13;27.60;94.20
21662;DHT22;10992;48.170;8.596;2023-10-09T14:05:40;27.60;93.70
21662;DHT22;10992;48.170;8.596;2023-10-09T14:08:37;28.00;93.90
21662;DHT22;10992;48.170;8.596;2023-10-09T14:11:08;28.40;94.20
21662;DHT22;10992;48.170;8.596;2023-10-09T14:13:40;28.10;93.40
21662;DHT22;10992;48.170;8.596;2023-10-09T14:16:07;28.00;93.60
21662;DHT22;10992;48.170;8.596;2023-10-09T14:18:47;27.80;93.40
21662;DHT22;10992;48.170;8.596;2023-10-09T14:21:14;27.80;93.80
21662;DHT22;10992;48.170;8.596;2023-10-09T14:23:43;27.90;92.70
21662;DHT22;10992;48.170;8.596;2023-10-09T14:26:13;27.90;92.60
21662;DHT22;10992;48.170;8.596;2023-10-09T14:28:40;27.20;92.60
21662;DHT22;10992;48.170;8.596;2023-10-09T14:31:09;26.90;93.30
21662;DHT22;10992;48.170;8.596;2023-10-09T14:33:39;26.50;93.70
21662;DHT22;10992;48.170;8.596;2023-10-09T14:36:07;26.40;93.70
21662;DHT22;10992;48.170;8.596;2023-10-09T14:38:34;26.20;94.10
21662;DHT22;10992;48.170;8.596;2023-10-09T14:41:06;26.10;94.80
21662;DHT22;10992;48.170;8.596;2023-10-09T14:43:39;25.70;94.60
21662;DHT22;10992;48.170;8.596;2023-10-09T14:46:06;25.50;94.30
21662;DHT22;10992;48.170;8.596;2023-10-09T14:48:37;25.30;93.90
21662;DHT22;10992;48.170;8.596;2023-10-09T14:51:04;24.90;93.80
21662;DHT22;10992;48.170;8.596;2023-10-09T14:53:32;24.70;94.20
21662;DHT22;10992;48.170;8.596;2023-10-09T14:56:01;24.50;94.10
21662;DHT22;10992;48.170;8.596;2023-10-09T14:58:29;24.20;94.20
21662;DHT22;10992;48.170;8.596;2023-10-09T15:01:08;24.10;94.00
21662;DHT22;10992;48.170;8.596;2023-10-09T15:03:37;23.90;94.30
21662;DHT22;10992;48.170;8.596;2023-10-09T15:06:07;23.70;93.90
21662;DHT22;10992;48.170;8.596;2023-10-09T15:08:37;23.60;94.10
21662;DHT22;10992;48.170;8.596;2023-10-09T15:11:04;23.40;94.50
21662;DHT22;10992;48.170;8.596;2023-10-09T15:13:32;23.40;95.00
21662;DHT22;10992;48.170;8.596;2023-10-09T15:15:59;23.20;95.40
21662;DHT22;10992;48.170;8.596;2023-10-09T15:18:29;23.20;95.80
21662;DHT22;10992;48.170;8.596;2023-10-09T15:20:59;23.00;96.70
21662;DHT22;10992;48.170;8.596;2023-10-09T15:23:27;22.90;97.10
21662;DHT22;10992;48.170;8.596;2023-10-09T15:25:54;22.80;97.00
21662;DHT22;10992;48.170;8.596;2023-10-09T15:28:22;22.70;97.50
21662;DHT22;10992;48.170;8.596;2023-10-09T15:30:49;22.60;98.00
21662;DHT22;10992;48.170;8.596;2023-10-09T15:33:17;22.60;98.10
21662;DHT22;10992;48.170;8.596;2023-10-09T15:35:46;22.50;98.80
21662;DHT22;10992;48.170;8.596;2023-10-09T15:38:18;22.30;99.00
21662;DHT22;10992;48.170;8.596;2023-10-09T15:40:46;22.20;99.10
21662;DHT22;10992;48.170;8.596;2023-10-09T15:43:14;22.00;99.60
21662;DHT22;10992;48.170;8.596;2023-10-09T15:45:44;21.90;99.70
21662;DHT22;10992;48.170;8.596;2023-10-09T15:48:16;21.80;99.90
21662;DHT22;10992;48.170;8.596;2023-10-09T15:50:48;21.60;99.90
21662;DHT22;10992;48.170;8.596;2023-10-09T15:53:15;21.50;99.90
21662;DHT22;10992;48.170;8.596;2023-10-09T15:55:44;21.30;99.90
21662;DHT22;10992;48.170;8.596;2023-10-09T15:58:12;21.20;99.90
21662;DHT22;10992;48.170;8.596;2023-10-09T16:00:39;21.10;99.90
21662;DHT22;10992;48.170;8.596;2023-10-09T16:03:06;21.00;99.90
21662;DHT22;10992;48.170;8.596;2023-10-09T16:05:37;20.90;99.90
21662;DHT22;10992;48.170;8.596;2023-10-09T16:08:04;20.80;99.90
21662;DHT22;10992;48.170;8.596;2023-10-09T16:10:31;20.80;99.90
21662;DHT22;10992;48.170;8.596;2023-10-09T16:12:58;20.70;99.90
21662;DHT22;10992;48.170;8.596;2023-10-09T16:15:28;20.60;99.90
21662;DHT22;10992;48.170;8.596;2023-10-09T16:17:55;20.50;99.90
21662;DHT22;10992;48.170;8.596;2023-10-09T16:20:33;20.40;99.90
21662;DHT22;10992;48.170;8.596;2023-10-09T16:23:00;20.30;99.90
21662;DHT22;10992;48.170;8.596;2023-10-09T16:25:32;20.10;99.90
21662;DHT22;10992;48.170;8.596;2023-10-09T16:28:04;20.00;99.90
21662;DHT22;10992;48.170;8.596;2023-10-09T16:30:31;19.90;99.90
21662;DHT22;10992;48.170;8.596;2023-10-09T16:32:57;19.80;99.90
21662;DHT22;10992;48.170;8.596;2023-10-09T16:35:25;19.70;99.90
21662;DHT22;10992;48.170;8.596;2023-10-09T16:37:52;19.60;99.90
21662;DHT22;10992;48.170;8.596;2023-10-09T16:40:19;19.40;99.90